sensor_id;sensor_type;location;lat;lon;timestamp;temperature;humidity
26541;DHT22;14206;50.202;10.948;2023-08-20T00:01:25;25.70;87.50
26541;DHT22;14206;50.202;10.948;2023-08-20T00:03:53;25.70;87.20
26541;DHT22;14206;50.202;10.948;2023-08-20T00:10:22;25.70;87.10
26541;DHT22;14206;50.202;10.948;2023-08-20T00:12:49;25.60;86.40
26541;DHT22;14206;50.202;10.948;2023-08-20T00:15:16;25.60;86.20
26541;DHT22;14206;50.202;10.948;2023-08-20T00:17:44;25.60;86.40
26541;DHT22;14206;50.202;10.948;2023-08-20T00:20:13;25.60;87.60
26541;DHT22;14206;50.202;10.948;2023-08-20T00:22:41;25.60;88.40
26541;DHT22;14206;50.202;10.948;2023-08-20T00:25:09;25.60;88.20
26541;DHT22;14206;50.202;10.948;2023-08-20T00:27:36;25.50;87.70
26541;DHT22;14206;50.202;10.948;2023-08-20T00:30:04;25.50;87.90
26541;DHT22;14206;50.202;10.948;2023-08-20T00:32:31;25.50;88.00
26541;DHT22;14206;50.202;10.948;2023-08-20T00:34:58;25.50;87.80
26541;DHT22;14206;50.202;10.948;2023-08-20T00:37:25;25.40;88.00
26541;DHT22;14206;50.202;10.948;2023-08-20T00:39:52;25.40;88.30
26541;DHT22;14206;50.202;10.948;2023-08-20T00:42:19;25.40;88.30
26541;DHT22;14206;50.202;10.948;2023-08-20T00:44:46;25.30;88.70
26541;DHT22;14206;50.202;10.948;2023-08-20T00:47:13;25.30;88.50
26541;DHT22;14206;50.202;10.948;2023-08-20T00:49:41;25.30;89.20
26541;DHT22;14206;50.202;10.948;2023-08-20T00:52:09;25.30;89.60
26541;DHT22;14206;50.202;10.948;2023-08-20T00:54:39;25.30;89.10
26541;DHT22;14206;50.202;10.948;2023-08-20T00:57:07;25.20;88.80
26541;DHT22;14206;50.202;10.948;2023-08-20T00:59:35;25.20;89.10
26541;DHT22;14206;50.202;10.948;2023-08-20T01:02:02;25.20;89.20
26541;DHT22;14206;50.202;10.948;2023-08-20T01:04:29;25.20;89.20
26541;DHT22;14206;50.202;10.948;2023-08-20T01:09:50;25.10;89.10
26541;DHT22;14206;50.202;10.948;2023-08-20T01:12:19;25.00;88.90
26541;DHT22;14206;50.202;10.948;2023-08-20T01:14:46;25.00;88.50
26541;DHT22;14206;50.202;10.948;2023-08-20T01:17:13;25.00;88.30
26541;DHT22;14206;50.202;10.948;2023-08-20T01:19:40;25.00;88.20
26541;DHT22;14206;50.202;10.948;2023-08-20T01:30:32;24.90;89.00
26541;DHT22;14206;50.202;10.948;2023-08-20T01:33:00;24.90;89.20
26541;DHT22;14206;50.202;10.948;2023-08-20T01:35:29;24.80;89.20
26541;DHT22;14206;50.202;10.948;2023-08-20T01:38:02;24.80;89.20
26541;DHT22;14206;50.202;10.948;2023-08-20T01:40:30;24.70;89.60
26541;DHT22;14206;50.202;10.948;2023-08-20T01:42:57;24.70;90.00
26541;DHT22;14206;50.202;10.948;2023-08-20T01:45:24;24.70;90.20
26541;DHT22;14206;50.202;10.948;2023-08-20T01:47:52;24.60;90.30
26541;DHT22;14206;50.202;10.948;2023-08-20T01:50:23;24.50;90.30
26541;DHT22;14206;50.202;10.948;2023-08-20T01:52:50;24.50;90.70
26541;DHT22;14206;50.202;10.948;2023-08-20T01:55:17;24.50;90.60
26541;DHT22;14206;50.202;10.948;2023-08-20T01:57:43;24.40;90.50
26541;DHT22;14206;50.202;10.948;2023-08-20T02:00:11;24.30;90.30
26541;DHT22;14206;50.202;10.948;2023-08-20T02:02:41;24.20;90.70
26541;DHT22;14206;50.202;10.948;2023-08-20T02:05:08;24.20;90.90
26541;DHT22;14206;50.202;10.948;2023-08-20T02:07:37;24.10;91.30
26541;DHT22;14206;50.202;10.948;2023-08-20T02:10:05;24.00;91.60
26541;DHT22;14206;50.202;10.948;2023-08-20T02:12:32;24.00;91.30
26541;DHT22;14206;50.202;10.948;2023-08-20T02:14:58;23.90;91.20
26541;DHT22;14206;50.202;10.948;2023-08-20T02:17:26;23.80;91.30
26541;DHT22;14206;50.202;10.948;2023-08-20T02:19:52;23.70;91.50
26541;DHT22;14206;50.202;10.948;2023-08-20T02:22:26;23.70;91.60
26541;DHT22;14206;50.202;10.948;2023-08-20T02:24:56;23.60;91.60
26541;DHT22;14206;50.202;10.948;2023-08-20T02:27:22;23.60;91.90
26541;DHT22;14206;50.202;10.948;2023-08-20T02:29:50;23.50;92.00
26541;DHT22;14206;50.202;10.948;2023-08-20T02:32:18;23.50;92.30
26541;DHT22;14206;50.202;10.948;2023-08-20T02:34:52;23.50;92.60
26541;DHT22;14206;50.202;10.948;2023-08-20T02:37:20;23.40;92.40
26541;DHT22;14206;50.202;10.948;2023-08-20T02:39:47;23.30;92.50
26541;DHT22;14206;50.202;10.948;2023-08-20T02:42:14;23.30;92.70
26541;DHT22;14206;50.202;10.948;2023-08-20T02:44:41;23.20;92.90
26541;DHT22;14206;50.202;10.948;2023-08-20T02:47:08;23.20;93.00
26541;DHT22;14206;50.202;10.948;2023-08-20T02:49:35;23.10;93.00
26541;DHT22;14206;50.202;10.948;2023-08-20T02:52:02;23.10;93.10
26541;DHT22;14206;50.202;10.948;2023-08-20T02:54:29;23.10;93.10
26541;DHT22;14206;50.202;10.948;2023-08-20T02:56:59;23.10;93.00
26541;DHT22;14206;50.202;10.948;2023-08-20T02:59:26;23.00;93.30
26541;DHT22;14206;50.202;10.948;2023-08-20T03:01:53;23.00;93.40
26541;DHT22;14206;50.202;10.948;2023-08-20T03:04:20;23.00;93.40
26541;DHT22;14206;50.202;10.948;2023-08-20T03:06:47;22.90;93.60
26541;DHT22;14206;50.202;10.948;2023-08-20T03:09:14;22.90;93.80
26541;DHT22;14206;50.202;10.948;2023-08-20T03:11:41;22.90;94.00
26541;DHT22;14206;50.202;10.948;2023-08-20T03:14:08;22.80;94.00
26541;DHT22;14206;50.202;10.948;2023-08-20T03:16:35;22.80;94.50
26541;DHT22;14206;50.202;10.948;2023-08-20T03:19:02;22.80;94.30
26541;DHT22;14206;50.202;10.948;2023-08-20T03:21:29;22.80;94.30
26541;DHT22;14206;50.202;10.948;2023-08-20T03:23:56;22.70;94.50
26541;DHT22;14206;50.202;10.948;2023-08-20T03:26:24;22.70;94.40
26541;DHT22;14206;50.202;10.948;2023-08-20T03:28:51;22.70;94.70
26541;DHT22;14206;50.202;10.948;2023-08-20T03:31:18;22.70;94.60
26541;DHT22;14206;50.202;10.948;2023-08-20T03:33:46;22.70;94.80
26541;DHT22;14206;50.202;10.948;2023-08-20T03:36:13;22.60;94.80
26541;DHT22;14206;50.202;10.948;2023-08-20T03:38:41;22.60;94.90
26541;DHT22;14206;50.202;10.948;2023-08-20T03:41:08;22.60;95.10
26541;DHT22;14206;50.202;10.948;2023-08-20T03:43:35;22.60;94.90
26541;DHT22;14206;50.202;10.948;2023-08-20T03:46:02;22.50;94.80
26541;DHT22;14206;50.202;10.948;2023-08-20T03:48:29;22.50;94.80
26541;DHT22;14206;50.202;10.948;2023-08-20T03:50:56;22.50;95.00
26541;DHT22;14206;50.202;10.948;2023-08-20T03:53:23;22.50;95.00
26541;DHT22;14206;50.202;10.948;2023-08-20T03:55:50;22.50;95.00
26541;DHT22;14206;50.202;10.948;2023-08-20T03:58:17;22.50;95.10
26541;DHT22;14206;50.202;10.948;2023-08-20T04:00:45;22.50;95.30
26541;DHT22;14206;50.202;10.948;2023-08-20T04:03:12;22.50;95.40
26541;DHT22;14206;50.202;10.948;2023-08-20T04:05:39;22.50;95.50
26541;DHT22;14206;50.202;10.948;2023-08-20T04:08:06;22.50;95.50
26541;DHT22;14206;50.202;10.948;2023-08-20T04:10:33;22.50;95.40
26541;DHT22;14206;50.202;10.948;2023-08-20T04:13:00;22.50;95.40
26541;DHT22;14206;50.202;10.948;2023-08-20T04:15:27;22.60;95.50
26541;DHT22;14206;50.202;10.948;2023-08-20T04:18:02;22.50;95.60
26541;DHT22;14206;50.202;10.948;2023-08-20T04:20:30;22.50;95.90
26541;DHT22;14206;50.202;10.948;2023-08-20T04:23:01;22.50;95.50
26541;DHT22;14206;50.202;10.948;2023-08-20T04:25:37;22.50;95.50
26541;DHT22;14206;50.202;10.948;2023-08-20T04:28:13;22.50;95.50
26541;DHT22;14206;50.202;10.948;2023-08-20T04:30:40;22.60;95.50
26541;DHT22;14206;50.202;10.948;2023-08-20T04:33:07;22.60;95.70
26541;DHT22;14206;50.202;10.948;2023-08-20T04:35:35;22.60;95.90
26541;DHT22;14206;50.202;10.948;2023-08-20T04:38:02;22.60;96.10
26541;DHT22;14206;50.202;10.948;2023-08-20T04:40:29;22.60;95.90
26541;DHT22;14206;50.202;10.948;2023-08-20T04:42:57;22.60;95.80
26541;DHT22;14206;50.202;10.948;2023-08-20T04:45:24;22.60;95.80
26541;DHT22;14206;50.202;10.948;2023-08-20T04:47:51;22.60;96.00
26541;DHT22;14206;50.202;10.948;2023-08-20T04:50:19;22.70;96.10
26541;DHT22;14206;50.202;10.948;2023-08-20T04:52:48;22.70;96.10
26541;DHT22;14206;50.202;10.948;2023-08-20T04:55:15;22.70;96.10
26541;DHT22;14206;50.202;10.948;2023-08-20T04:57:42;22.80;96.20
26541;DHT22;14206;50.202;10.948;2023-08-20T05:00:11;22.80;96.50
26541;DHT22;14206;50.202;10.948;2023-08-20T05:03:05;22.80;96.50
26541;DHT22;14206;50.202;10.948;2023-08-20T05:05:32;22.90;96.60
26541;DHT22;14206;50.202;10.948;2023-08-20T05:08:01;22.90;96.60
26541;DHT22;14206;50.202;10.948;2023-08-20T05:10:27;23.00;96.40
26541;DHT22;14206;50.202;10.948;2023-08-20T05:12:54;23.10;96.20
26541;DHT22;14206;50.202;10.948;2023-08-20T05:15:21;23.20;95.90
26541;DHT22;14206;50.202;10.948;2023-08-20T05:17:52;23.20;95.50
26541;DHT22;14206;50.202;10.948;2023-08-20T05:20:19;23.20;95.10
26541;DHT22;14206;50.202;10.948;2023-08-20T05:22:46;23.30;95.70
26541;DHT22;14206;50.202;10.948;2023-08-20T05:25:13;23.40;95.90
26541;DHT22;14206;50.202;10.948;2023-08-20T05:27:41;23.50;95.80
26541;DHT22;14206;50.202;10.948;2023-08-20T05:30:08;23.70;95.10
26541;DHT22;14206;50.202;10.948;2023-08-20T05:32:35;23.80;95.50
26541;DHT22;14206;50.202;10.948;2023-08-20T05:35:03;23.90;95.20
26541;DHT22;14206;50.202;10.948;2023-08-20T05:37:31;24.00;95.10
26541;DHT22;14206;50.202;10.948;2023-08-20T05:39:58;24.10;94.80
26541;DHT22;14206;50.202;10.948;2023-08-20T05:42:26;24.10;94.80
26541;DHT22;14206;50.202;10.948;2023-08-20T05:44:59;24.20;94.50
26541;DHT22;14206;50.202;10.948;2023-08-20T05:47:28;24.20;94.50
26541;DHT22;14206;50.202;10.948;2023-08-20T05:49:55;24.20;94.90
26541;DHT22;14206;50.202;10.948;2023-08-20T05:52:22;24.30;94.70
26541;DHT22;14206;50.202;10.948;2023-08-20T05:54:49;24.40;94.60
26541;DHT22;14206;50.202;10.948;2023-08-20T05:57:16;24.40;94.50
26541;DHT22;14206;50.202;10.948;2023-08-20T05:59:43;24.50;93.80
26541;DHT22;14206;50.202;10.948;2023-08-20T06:02:16;24.50;93.60
26541;DHT22;14206;50.202;10.948;2023-08-20T06:04:44;24.60;93.50
26541;DHT22;14206;50.202;10.948;2023-08-20T06:07:11;24.70;92.90
26541;DHT22;14206;50.202;10.948;2023-08-20T06:09:38;24.80;92.80
26541;DHT22;14206;50.202;10.948;2023-08-20T06:12:05;24.90;92.30
26541;DHT22;14206;50.202;10.948;2023-08-20T06:14:32;25.00;92.00
26541;DHT22;14206;50.202;10.948;2023-08-20T06:16:59;25.00;91.90
26541;DHT22;14206;50.202;10.948;2023-08-20T06:19:26;25.20;91.80
26541;DHT22;14206;50.202;10.948;2023-08-20T06:21:52;25.30;91.80
26541;DHT22;14206;50.202;10.948;2023-08-20T06:24:19;25.40;91.00
26541;DHT22;14206;50.202;10.948;2023-08-20T06:26:46;25.40;91.10
26541;DHT22;14206;50.202;10.948;2023-08-20T06:29:14;25.50;90.90
26541;DHT22;14206;50.202;10.948;2023-08-20T06:31:41;25.70;90.80
26541;DHT22;14206;50.202;10.948;2023-08-20T06:34:08;25.80;90.20
26541;DHT22;14206;50.202;10.948;2023-08-20T06:36:36;25.90;89.90
26541;DHT22;14206;50.202;10.948;2023-08-20T06:39:04;26.00;89.40
26541;DHT22;14206;50.202;10.948;2023-08-20T06:41:31;26.10;90.00
26541;DHT22;14206;50.202;10.948;2023-08-20T06:43:58;26.30;89.80
26541;DHT22;14206;50.202;10.948;2023-08-20T06:46:24;26.40;89.20
26541;DHT22;14206;50.202;10.948;2023-08-20T06:48:52;26.40;88.70
26541;DHT22;14206;50.202;10.948;2023-08-20T06:51:20;26.50;88.50
26541;DHT22;14206;50.202;10.948;2023-08-20T06:53:48;26.60;88.80
26541;DHT22;14206;50.202;10.948;2023-08-20T06:56:15;26.70;88.50
26541;DHT22;14206;50.202;10.948;2023-08-20T06:58:42;26.80;87.40
26541;DHT22;14206;50.202;10.948;2023-08-20T07:01:09;26.90;87.10
26541;DHT22;14206;50.202;10.948;2023-08-20T07:03:46;27.00;87.00
26541;DHT22;14206;50.202;10.948;2023-08-20T07:06:13;27.10;86.50
26541;DHT22;14206;50.202;10.948;2023-08-20T07:08:45;27.20;87.20
26541;DHT22;14206;50.202;10.948;2023-08-20T07:11:12;27.40;86.70
26541;DHT22;14206;50.202;10.948;2023-08-20T07:13:39;27.50;86.60
26541;DHT22;14206;50.202;10.948;2023-08-20T07:16:05;27.60;86.00
26541;DHT22;14206;50.202;10.948;2023-08-20T07:18:32;27.70;86.00
26541;DHT22;14206;50.202;10.948;2023-08-20T07:20:59;27.90;85.00
26541;DHT22;14206;50.202;10.948;2023-08-20T07:23:26;28.00;84.70
26541;DHT22;14206;50.202;10.948;2023-08-20T07:26:07;28.10;84.60
26541;DHT22;14206;50.202;10.948;2023-08-20T07:28:35;28.20;84.00
26541;DHT22;14206;50.202;10.948;2023-08-20T07:31:21;28.40;83.90
26541;DHT22;14206;50.202;10.948;2023-08-20T07:33:49;28.60;83.60
26541;DHT22;14206;50.202;10.948;2023-08-20T07:36:17;29.00;83.30
26541;DHT22;14206;50.202;10.948;2023-08-20T07:38:45;29.70;80.80
26541;DHT22;14206;50.202;10.948;2023-08-20T07:41:12;30.60;79.00
26541;DHT22;14206;50.202;10.948;2023-08-20T07:43:39;31.30;76.10
26541;DHT22;14206;50.202;10.948;2023-08-20T07:46:07;32.00;75.00
26541;DHT22;14206;50.202;10.948;2023-08-20T07:48:35;32.80;73.70
26541;DHT22;14206;50.202;10.948;2023-08-20T07:51:03;33.60;70.20
26541;DHT22;14206;50.202;10.948;2023-08-20T07:53:30;34.40;69.90
26541;DHT22;14206;50.202;10.948;2023-08-20T07:55:58;34.60;69.60
26541;DHT22;14206;50.202;10.948;2023-08-20T07:58:25;34.40;69.20
26541;DHT22;14206;50.202;10.948;2023-08-20T08:00:55;34.10;68.60
26541;DHT22;14206;50.202;10.948;2023-08-20T08:03:25;33.80;69.70
26541;DHT22;14206;50.202;10.948;2023-08-20T08:05:53;33.50;70.20
26541;DHT22;14206;50.202;10.948;2023-08-20T08:08:21;33.20;70.20
26541;DHT22;14206;50.202;10.948;2023-08-20T08:10:48;32.90;70.30
26541;DHT22;14206;50.202;10.948;2023-08-20T08:13:18;32.50;71.10
26541;DHT22;14206;50.202;10.948;2023-08-20T08:15:46;32.10;71.60
26541;DHT22;14206;50.202;10.948;2023-08-20T08:18:14;31.80;72.70
26541;DHT22;14206;50.202;10.948;2023-08-20T08:20:41;31.70;73.10
26541;DHT22;14206;50.202;10.948;2023-08-20T08:23:08;31.60;73.20
26541;DHT22;14206;50.202;10.948;2023-08-20T08:25:35;31.50;73.20
26541;DHT22;14206;50.202;10.948;2023-08-20T08:28:03;31.40;73.50
26541;DHT22;14206;50.202;10.948;2023-08-20T08:30:31;31.20;74.00
26541;DHT22;14206;50.202;10.948;2023-08-20T08:32:58;31.10;74.80
26541;DHT22;14206;50.202;10.948;2023-08-20T08:35:25;31.30;75.00
26541;DHT22;14206;50.202;10.948;2023-08-20T08:37:52;32.00;73.40
26541;DHT22;14206;50.202;10.948;2023-08-20T08:40:19;32.50;72.30
26541;DHT22;14206;50.202;10.948;2023-08-20T08:42:48;32.80;70.90
26541;DHT22;14206;50.202;10.948;2023-08-20T08:45:20;33.10;70.10
26541;DHT22;14206;50.202;10.948;2023-08-20T08:47:49;33.00;70.70
26541;DHT22;14206;50.202;10.948;2023-08-20T08:50:16;33.00;70.60
26541;DHT22;14206;50.202;10.948;2023-08-20T08:52:45;32.80;70.70
26541;DHT22;14206;50.202;10.948;2023-08-20T08:55:13;32.60;71.10
26541;DHT22;14206;50.202;10.948;2023-08-20T08:57:39;32.30;71.50
26541;DHT22;14206;50.202;10.948;2023-08-20T09:00:07;32.00;72.30
26541;DHT22;14206;50.202;10.948;2023-08-20T09:02:34;31.90;72.70
26541;DHT22;14206;50.202;10.948;2023-08-20T09:05:01;31.70;73.80
26541;DHT22;14206;50.202;10.948;2023-08-20T09:07:28;31.50;73.90
26541;DHT22;14206;50.202;10.948;2023-08-20T09:09:58;32.30;73.70
26541;DHT22;14206;50.202;10.948;2023-08-20T09:12:26;33.40;72.40
26541;DHT22;14206;50.202;10.948;2023-08-20T09:14:54;34.80;68.70
26541;DHT22;14206;50.202;10.948;2023-08-20T09:17:28;35.70;67.20
26541;DHT22;14206;50.202;10.948;2023-08-20T09:19:56;35.70;65.40
26541;DHT22;14206;50.202;10.948;2023-08-20T09:22:24;35.20;65.40
26541;DHT22;14206;50.202;10.948;2023-08-20T09:24:57;34.70;65.70
26541;DHT22;14206;50.202;10.948;2023-08-20T09:27:24;35.00;64.80
26541;DHT22;14206;50.202;10.948;2023-08-20T09:29:55;35.70;64.40
26541;DHT22;14206;50.202;10.948;2023-08-20T09:32:25;36.70;63.10
26541;DHT22;14206;50.202;10.948;2023-08-20T09:34:55;37.80;62.40
26541;DHT22;14206;50.202;10.948;2023-08-20T09:37:23;38.70;60.00
26541;DHT22;14206;50.202;10.948;2023-08-20T09:39:51;39.60;57.80
26541;DHT22;14206;50.202;10.948;2023-08-20T09:42:18;40.30;55.90
26541;DHT22;14206;50.202;10.948;2023-08-20T09:44:46;40.90;55.10
26541;DHT22;14206;50.202;10.948;2023-08-20T09:47:17;41.40;53.70
26541;DHT22;14206;50.202;10.948;2023-08-20T09:49:47;41.70;54.30
26541;DHT22;14206;50.202;10.948;2023-08-20T09:52:34;42.20;51.80
26541;DHT22;14206;50.202;10.948;2023-08-20T09:55:13;42.50;51.20
26541;DHT22;14206;50.202;10.948;2023-08-20T09:57:43;42.80;52.10
26541;DHT22;14206;50.202;10.948;2023-08-20T10:00:13;43.10;50.20
26541;DHT22;14206;50.202;10.948;2023-08-20T10:02:42;43.10;50.30
26541;DHT22;14206;50.202;10.948;2023-08-20T10:05:11;43.40;49.80
26541;DHT22;14206;50.202;10.948;2023-08-20T10:07:49;43.60;48.50
26541;DHT22;14206;50.202;10.948;2023-08-20T10:10:18;43.80;49.60
26541;DHT22;14206;50.202;10.948;2023-08-20T10:12:45;44.20;49.90
26541;DHT22;14206;50.202;10.948;2023-08-20T10:15:13;44.70;49.50
26541;DHT22;14206;50.202;10.948;2023-08-20T10:17:43;45.00;48.50
26541;DHT22;14206;50.202;10.948;2023-08-20T10:20:13;45.20;47.40
26541;DHT22;14206;50.202;10.948;2023-08-20T10:22:43;45.00;47.10
26541;DHT22;14206;50.202;10.948;2023-08-20T10:25:23;45.00;47.80
26541;DHT22;14206;50.202;10.948;2023-08-20T10:27:51;45.40;45.30
26541;DHT22;14206;50.202;10.948;2023-08-20T10:30:19;45.30;46.70
26541;DHT22;14206;50.202;10.948;2023-08-20T10:32:56;44.90;46.40
26541;DHT22;14206;50.202;10.948;2023-08-20T10:35:25;44.60;47.60
26541;DHT22;14206;50.202;10.948;2023-08-20T10:43:35;44.80;47.40
26541;DHT22;14206;50.202;10.948;2023-08-20T10:46:07;45.20;47.30
26541;DHT22;14206;50.202;10.948;2023-08-20T10:48:39;45.60;46.00
26541;DHT22;14206;50.202;10.948;2023-08-20T10:51:14;45.60;45.30
26541;DHT22;14206;50.202;10.948;2023-08-20T10:56:54;46.10;45.00
26541;DHT22;14206;50.202;10.948;2023-08-20T10:59:23;46.30;45.40
26541;DHT22;14206;50.202;10.948;2023-08-20T11:01:54;46.70;45.40
26541;DHT22;14206;50.202;10.948;2023-08-20T11:04:23;46.50;44.90
26541;DHT22;14206;50.202;10.948;2023-08-20T11:06:55;45.50;45.50
26541;DHT22;14206;50.202;10.948;2023-08-20T11:09:27;45.10;47.30
26541;DHT22;14206;50.202;10.948;2023-08-20T11:11:55;45.50;45.90
26541;DHT22;14206;50.202;10.948;2023-08-20T11:14:24;45.80;46.00
26541;DHT22;14206;50.202;10.948;2023-08-20T11:16:51;46.00;45.40
26541;DHT22;14206;50.202;10.948;2023-08-20T11:19:22;46.30;46.00
26541;DHT22;14206;50.202;10.948;2023-08-20T11:21:50;45.90;45.00
26541;DHT22;14206;50.202;10.948;2023-08-20T11:24:17;45.50;46.50
26541;DHT22;14206;50.202;10.948;2023-08-20T11:26:47;44.90;47.10
26541;DHT22;14206;50.202;10.948;2023-08-20T11:29:15;44.30;47.30
26541;DHT22;14206;50.202;10.948;2023-08-20T11:31:47;44.40;47.60
26541;DHT22;14206;50.202;10.948;2023-08-20T11:34:14;44.60;47.70
26541;DHT22;14206;50.202;10.948;2023-08-20T11:36:41;44.40;47.90
26541;DHT22;14206;50.202;10.948;2023-08-20T11:39:08;44.10;48.60
26541;DHT22;14206;50.202;10.948;2023-08-20T11:41:39;43.80;48.20
26541;DHT22;14206;50.202;10.948;2023-08-20T11:44:09;44.30;47.20
26541;DHT22;14206;50.202;10.948;2023-08-20T11:46:42;44.40;46.30
26541;DHT22;14206;50.202;10.948;2023-08-20T11:49:11;44.50;46.20
26541;DHT22;14206;50.202;10.948;2023-08-20T11:51:40;44.20;46.50
26541;DHT22;14206;50.202;10.948;2023-08-20T11:54:09;43.20;47.60
26541;DHT22;14206;50.202;10.948;2023-08-20T11:56:42;42.70;49.00
26541;DHT22;14206;50.202;10.948;2023-08-20T11:59:11;42.80;49.50
26541;DHT22;14206;50.202;10.948;2023-08-20T12:01:38;42.80;50.30
26541;DHT22;14206;50.202;10.948;2023-08-20T12:04:08;42.50;49.60
26541;DHT22;14206;50.202;10.948;2023-08-20T12:06:36;42.00;49.90
26541;DHT22;14206;50.202;10.948;2023-08-20T12:09:22;41.70;50.50
26541;DHT22;14206;50.202;10.948;2023-08-20T12:11:54;41.80;51.70
26541;DHT22;14206;50.202;10.948;2023-08-20T12:14:23;42.40;51.10
26541;DHT22;14206;50.202;10.948;2023-08-20T12:16:50;42.90;50.50
26541;DHT22;14206;50.202;10.948;2023-08-20T12:19:20;42.70;50.20
26541;DHT22;14206;50.202;10.948;2023-08-20T12:21:47;42.70;49.50
26541;DHT22;14206;50.202;10.948;2023-08-20T12:24:16;43.30;50.20
26541;DHT22;14206;50.202;10.948;2023-08-20T12:26:43;43.60;48.70
26541;DHT22;14206;50.202;10.948;2023-08-20T12:29:10;44.00;51.50
26541;DHT22;14206;50.202;10.948;2023-08-20T12:31:37;43.80;49.00
26541;DHT22;14206;50.202;10.948;2023-08-20T12:34:04;43.30;50.70
26541;DHT22;14206;50.202;10.948;2023-08-20T12:36:33;43.30;51.20
26541;DHT22;14206;50.202;10.948;2023-08-20T12:39:00;43.70;49.40
26541;DHT22;14206;50.202;10.948;2023-08-20T12:41:27;43.90;50.10
26541;DHT22;14206;50.202;10.948;2023-08-20T12:43:53;44.10;49.20
26541;DHT22;14206;50.202;10.948;2023-08-20T12:46:20;43.80;48.40
26541;DHT22;14206;50.202;10.948;2023-08-20T12:48:49;43.60;50.20
26541;DHT22;14206;50.202;10.948;2023-08-20T12:51:16;43.50;49.90
26541;DHT22;14206;50.202;10.948;2023-08-20T12:53:44;43.00;50.00
26541;DHT22;14206;50.202;10.948;2023-08-20T12:56:11;43.10;50.50
26541;DHT22;14206;50.202;10.948;2023-08-20T12:58:38;43.00;50.00
26541;DHT22;14206;50.202;10.948;2023-08-20T13:01:05;43.20;49.50
26541;DHT22;14206;50.202;10.948;2023-08-20T13:03:32;43.20;47.90
26541;DHT22;14206;50.202;10.948;2023-08-20T13:06:00;43.10;48.90
26541;DHT22;14206;50.202;10.948;2023-08-20T13:08:27;42.50;49.90
26541;DHT22;14206;50.202;10.948;2023-08-20T13:10:56;41.80;49.60
26541;DHT22;14206;50.202;10.948;2023-08-20T13:13:26;41.30;50.80
26541;DHT22;14206;50.202;10.948;2023-08-20T13:15:54;40.80;50.00
26541;DHT22;14206;50.202;10.948;2023-08-20T13:18:21;40.50;51.20
26541;DHT22;14206;50.202;10.948;2023-08-20T13:20:53;40.00;52.60
26541;DHT22;14206;50.202;10.948;2023-08-20T13:23:20;39.40;52.90
26541;DHT22;14206;50.202;10.948;2023-08-20T13:25:47;38.80;54.50
26541;DHT22;14206;50.202;10.948;2023-08-20T13:28:14;38.50;56.10
26541;DHT22;14206;50.202;10.948;2023-08-20T13:30:41;38.20;56.90
26541;DHT22;14206;50.202;10.948;2023-08-20T13:33:08;37.80;55.50
26541;DHT22;14206;50.202;10.948;2023-08-20T13:35:35;37.30;55.30
26541;DHT22;14206;50.202;10.948;2023-08-20T13:38:02;36.70;57.00
26541;DHT22;14206;50.202;10.948;2023-08-20T13:40:31;36.30;57.10
26541;DHT22;14206;50.202;10.948;2023-08-20T13:42:58;36.00;57.40
26541;DHT22;14206;50.202;10.948;2023-08-20T13:45:25;35.80;58.00
26541;DHT22;14206;50.202;10.948;2023-08-20T13:47:52;35.60;60.70
26541;DHT22;14206;50.202;10.948;2023-08-20T13:50:19;35.30;62.00
26541;DHT22;14206;50.202;10.948;2023-08-20T13:52:46;35.20;62.50
26541;DHT22;14206;50.202;10.948;2023-08-20T13:55:13;35.00;63.60
26541;DHT22;14206;50.202;10.948;2023-08-20T13:57:40;34.90;62.90
26541;DHT22;14206;50.202;10.948;2023-08-20T14:00:07;34.80;62.10
26541;DHT22;14206;50.202;10.948;2023-08-20T14:02:37;34.70;64.20
26541;DHT22;14206;50.202;10.948;2023-08-20T14:05:05;34.60;66.00
26541;DHT22;14206;50.202;10.948;2023-08-20T14:07:32;34.50;64.60
26541;DHT22;14206;50.202;10.948;2023-08-20T14:10:00;34.30;63.80
26541;DHT22;14206;50.202;10.948;2023-08-20T14:12:27;34.20;65.80
26541;DHT22;14206;50.202;10.948;2023-08-20T14:14:54;34.10;65.60
26541;DHT22;14206;50.202;10.948;2023-08-20T14:17:21;34.00;65.50
26541;DHT22;14206;50.202;10.948;2023-08-20T14:19:48;33.90;63.70
26541;DHT22;14206;50.202;10.948;2023-08-20T14:22:15;33.80;65.00
26541;DHT22;14206;50.202;10.948;2023-08-20T14:24:41;33.70;64.60
26541;DHT22;14206;50.202;10.948;2023-08-20T14:27:08;33.60;66.40
26541;DHT22;14206;50.202;10.948;2023-08-20T14:29:36;33.50;65.00
26541;DHT22;14206;50.202;10.948;2023-08-20T14:32:03;33.50;63.50
26541;DHT22;14206;50.202;10.948;2023-08-20T14:34:30;33.40;63.10
26541;DHT22;14206;50.202;10.948;2023-08-20T14:36:57;33.40;64.50
26541;DHT22;14206;50.202;10.948;2023-08-20T14:39:24;33.40;66.10
26541;DHT22;14206;50.202;10.948;2023-08-20T14:41:51;33.40;66.40
26541;DHT22;14206;50.202;10.948;2023-08-20T14:44:18;33.30;65.20
26541;DHT22;14206;50.202;10.948;2023-08-20T14:46:45;33.30;66.20
26541;DHT22;14206;50.202;10.948;2023-08-20T14:49:12;33.30;66.60
26541;DHT22;14206;50.202;10.948;2023-08-20T14:51:39;33.20;67.30
26541;DHT22;14206;50.202;10.948;2023-08-20T14:54:05;33.10;67.20
26541;DHT22;14206;50.202;10.948;2023-08-20T14:56:32;33.20;68.30
26541;DHT22;14206;50.202;10.948;2023-08-20T14:58:59;33.10;68.20
26541;DHT22;14206;50.202;10.948;2023-08-20T15:01:27;33.10;68.20
26541;DHT22;14206;50.202;10.948;2023-08-20T15:03:54;33.00;68.20
26541;DHT22;14206;50.202;10.948;2023-08-20T15:06:21;33.00;69.20
26541;DHT22;14206;50.202;10.948;2023-08-20T15:08:48;32.80;68.80
26541;DHT22;14206;50.202;10.948;2023-08-20T15:11:16;32.70;68.20
26541;DHT22;14206;50.202;10.948;2023-08-20T15:13:43;32.60;68.00
26541;DHT22;14206;50.202;10.948;2023-08-20T15:16:10;32.60;69.40
26541;DHT22;14206;50.202;10.948;2023-08-20T15:18:36;32.60;70.20
26541;DHT22;14206;50.202;10.948;2023-08-20T15:21:03;32.60;69.70
26541;DHT22;14206;50.202;10.948;2023-08-20T15:23:30;32.70;69.40
26541;DHT22;14206;50.202;10.948;2023-08-20T15:26:01;32.70;69.60
26541;DHT22;14206;50.202;10.948;2023-08-20T15:28:28;32.70;70.10
26541;DHT22;14206;50.202;10.948;2023-08-20T15:30:57;32.70;70.50
26541;DHT22;14206;50.202;10.948;2023-08-20T15:33:26;32.70;70.00
26541;DHT22;14206;50.202;10.948;2023-08-20T15:35:53;32.70;69.70
26541;DHT22;14206;50.202;10.948;2023-08-20T15:38:20;32.70;70.10
26541;DHT22;14206;50.202;10.948;2023-08-20T15:40:47;32.70;70.30
26541;DHT22;14206;50.202;10.948;2023-08-20T15:43:14;32.60;72.10
26541;DHT22;14206;50.202;10.948;2023-08-20T15:45:41;32.60;70.50